createdAt,value
2022-09-12T00:01:22.898Z,23.73
2022-09-12T00:03:53.381Z,28.50
2022-09-12T00:06:23.998Z,23.52
2022-09-12T00:08:56.587Z,25.13
2022-09-12T00:11:26.155Z,23.52
2022-09-12T00:13:58.249Z,24.42
2022-09-12T00:18:56.406Z,27.38
2022-09-12T00:21:25.868Z,30.40
2022-09-12T00:23:59.587Z,31.42
2022-09-12T00:26:29.210Z,33.85
2022-09-12T00:28:58.649Z,33.78
2022-09-12T00:31:28.291Z,34.58
2022-09-12T00:34:00.690Z,34.92
2022-09-12T00:36:31.113Z,30.92
2022-09-12T00:39:03.115Z,34.28
2022-09-12T00:41:33.425Z,32.40
2022-09-12T00:44:03.375Z,36.90
2022-09-12T00:46:36.199Z,34.42
2022-09-12T00:49:07.086Z,35.22
2022-09-12T00:51:38.745Z,33.45
2022-09-12T00:54:12.554Z,35.25
2022-09-12T00:56:42.971Z,37.22
2022-09-12T00:59:14.614Z,40.35
2022-09-12T01:01:44.525Z,38.25
2022-09-12T01:04:14.095Z,36.15
2022-09-12T01:06:44.020Z,31.17
2022-09-12T01:09:16.778Z,38.25
2022-09-12T01:11:47.046Z,34.35
2022-09-12T01:14:16.476Z,30.77
2022-09-12T01:16:46.301Z,32.45
2022-09-12T01:19:24.645Z,36.65
2022-09-12T01:22:01.798Z,31.70
2022-09-12T01:24:44.975Z,32.25
2022-09-12T01:27:22.894Z,32.80
2022-09-12T01:30:07.081Z,31.17
2022-09-12T01:32:46.612Z,28.10
2022-09-12T01:35:21.545Z,28.58
2022-09-12T01:37:55.832Z,26.13
2022-09-12T01:40:29.911Z,26.00
2022-09-12T01:43:03.418Z,28.92
2022-09-12T01:45:35.048Z,31.70
2022-09-12T01:48:08.926Z,21.17
2022-09-12T01:50:42.067Z,28.02
2022-09-12T01:53:15.023Z,21.73
2022-09-12T01:55:46.712Z,21.40
2022-09-12T01:58:19.864Z,20.35
2022-09-12T02:00:53.792Z,20.30
2022-09-12T02:03:26.450Z,21.73
2022-09-12T02:05:58.712Z,22.48
2022-09-12T02:08:33.500Z,22.23
2022-09-12T02:11:05.553Z,22.75
2022-09-12T02:16:06.564Z,17.67
2022-09-12T02:18:39.151Z,21.00
2022-09-12T02:21:09.849Z,15.98
2022-09-12T02:23:40.559Z,17.75
2022-09-12T02:26:12.824Z,16.73
2022-09-12T02:28:43.828Z,15.45
2022-09-12T02:31:16.661Z,17.30
2022-09-12T02:33:50.591Z,15.88
2022-09-12T02:36:24.871Z,15.23
2022-09-12T02:38:54.816Z,14.77
2022-09-12T02:41:24.607Z,14.10
2022-09-12T02:43:56.491Z,15.55
2022-09-12T02:46:28.926Z,13.65
2022-09-12T02:49:00.472Z,13.77
2022-09-12T02:51:29.688Z,12.80
2022-09-12T02:53:58.913Z,13.80
2022-09-12T02:56:29.946Z,14.68
2022-09-12T02:59:01.695Z,15.15
2022-09-12T03:01:44.750Z,15.23
2022-09-12T03:04:32.354Z,15.77
2022-09-12T03:07:05.308Z,16.17
2022-09-12T03:09:39.913Z,12.00
2022-09-12T03:12:12.929Z,10.13
2022-09-12T03:15:03.449Z,16.52
2022-09-12T03:17:41.492Z,11.23
2022-09-12T03:20:13.423Z,15.77
2022-09-12T03:22:50.997Z,11.73
2022-09-12T03:25:22.389Z,12.50
2022-09-12T03:27:56.316Z,11.40
2022-09-12T03:30:25.495Z,10.73
2022-09-12T03:32:55.353Z,10.43
2022-09-12T03:35:26.812Z,7.60
2022-09-12T03:37:55.788Z,13.15
2022-09-12T03:40:24.921Z,12.77
2022-09-12T03:42:53.946Z,11.77
2022-09-12T03:45:22.938Z,10.73
2022-09-12T03:47:52.274Z,13.32
2022-09-12T03:50:21.384Z,9.90
2022-09-12T03:52:51.999Z,10.93
2022-09-12T03:55:21.069Z,11.07
2022-09-12T03:57:50.430Z,15.25
2022-09-12T04:00:20.123Z,11.60
2022-09-12T04:02:49.492Z,11.52
2022-09-12T04:05:18.554Z,9.77
2022-09-12T04:07:47.714Z,12.18
2022-09-12T04:10:18.186Z,10.95
2022-09-12T04:12:47.135Z,10.45
2022-09-12T04:15:16.497Z,12.00
2022-09-12T04:17:45.377Z,9.95
2022-09-12T04:20:14.339Z,12.10
2022-09-12T04:22:43.589Z,14.13
2022-09-12T04:25:13.499Z,14.35
2022-09-12T04:27:43.881Z,12.45
2022-09-12T04:30:13.460Z,12.82
2022-09-12T04:32:42.455Z,11.45
2022-09-12T04:35:12.877Z,15.02
2022-09-12T04:37:41.881Z,11.27
2022-09-12T04:40:11.282Z,12.77
2022-09-12T04:42:40.436Z,10.90
2022-09-12T04:45:11.512Z,10.70
2022-09-12T04:47:40.512Z,13.07
2022-09-12T04:50:10.037Z,9.98
2022-09-12T04:52:39.112Z,16.60
2022-09-12T04:55:09.370Z,10.48
2022-09-12T04:57:38.737Z,8.93
2022-09-12T05:00:08.936Z,14.45
2022-09-12T05:02:39.824Z,12.77
2022-09-12T05:05:09.291Z,12.90
2022-09-12T05:07:38.515Z,12.15
2022-09-12T05:10:08.403Z,13.63
2022-09-12T05:12:37.532Z,12.00
2022-09-12T05:15:06.917Z,10.65
2022-09-12T05:17:35.955Z,10.95
2022-09-12T05:20:06.778Z,12.02
2022-09-12T05:22:35.741Z,12.93
2022-09-12T05:25:05.782Z,13.35
2022-09-12T05:27:34.979Z,10.15
2022-09-12T05:30:04.158Z,13.90
2022-09-12T05:32:33.678Z,12.95
2022-09-12T05:35:02.764Z,12.23
2022-09-12T05:37:33.233Z,10.07
2022-09-12T05:40:05.681Z,9.55
2022-09-12T05:42:34.896Z,9.82
2022-09-12T05:45:04.139Z,10.00
2022-09-12T05:47:33.572Z,11.15
2022-09-12T05:50:02.913Z,11.23
2022-09-12T05:52:33.913Z,11.18
2022-09-12T05:55:03.022Z,6.20
2022-09-12T05:57:32.055Z,10.95
2022-09-12T06:00:01.280Z,9.10
2022-09-12T06:02:30.566Z,7.03
2022-09-12T06:04:59.666Z,5.07
2022-09-12T06:07:29.452Z,4.38
2022-09-12T06:10:00.158Z,4.47
2022-09-12T06:12:30.913Z,8.38
2022-09-12T06:15:00.310Z,6.30
2022-09-12T06:17:29.336Z,5.00
2022-09-12T06:19:58.873Z,5.10
2022-09-12T06:22:27.989Z,5.22
2022-09-12T06:24:58.050Z,4.45
2022-09-12T06:27:28.627Z,2.97
2022-09-12T06:29:57.862Z,3.67
2022-09-12T06:32:26.921Z,2.90
2022-09-12T06:34:56.479Z,3.58
2022-09-12T06:37:25.745Z,4.03
2022-09-12T06:39:56.057Z,2.58
2022-09-12T06:42:25.252Z,4.93
2022-09-12T06:45:00.849Z,4.65
2022-09-12T06:47:30.392Z,3.90
2022-09-12T06:49:59.634Z,3.25
2022-09-12T06:52:29.792Z,4.20
2022-09-12T06:54:58.971Z,2.75
2022-09-12T06:57:30.416Z,3.45
2022-09-12T07:00:01.036Z,5.93
2022-09-12T07:02:30.216Z,4.05
2022-09-12T07:04:59.379Z,3.17
2022-09-12T07:07:28.669Z,3.40
2022-09-12T07:09:58.483Z,3.30
2022-09-12T07:12:27.661Z,4.60
2022-09-12T07:14:56.663Z,1.70
2022-09-12T07:17:27.276Z,2.70
2022-09-12T07:19:56.443Z,2.53
2022-09-12T07:22:25.484Z,5.05
2022-09-12T07:24:55.784Z,3.50
2022-09-12T07:27:24.944Z,4.50
2022-09-12T07:29:54.150Z,5.78
2022-09-12T07:32:23.911Z,3.85
2022-09-12T07:34:54.370Z,4.18
2022-09-12T07:37:23.764Z,2.85
2022-09-12T07:39:52.986Z,4.80
2022-09-12T07:42:23.371Z,4.70
2022-09-12T07:44:53.812Z,4.15
2022-09-12T07:47:23.056Z,4.13
2022-09-12T07:49:52.936Z,3.90
2022-09-12T07:52:23.497Z,5.00
2022-09-12T07:54:52.652Z,3.53
2022-09-12T07:57:21.930Z,3.13
2022-09-12T07:59:53.376Z,2.00
2022-09-12T08:02:22.903Z,3.05
2022-09-12T08:04:52.993Z,3.90
2022-09-12T08:07:23.954Z,2.88
2022-09-12T08:09:53.482Z,2.88
2022-09-12T08:12:22.573Z,2.67
2022-09-12T08:14:51.746Z,4.97
2022-09-12T08:17:22.059Z,3.08
2022-09-12T08:19:51.536Z,4.43
2022-09-12T08:22:22.022Z,3.55
2022-09-12T08:24:52.625Z,4.13
2022-09-12T08:27:21.910Z,1.60
2022-09-12T08:29:51.068Z,4.35
2022-09-12T08:32:20.288Z,3.85
2022-09-12T08:34:49.543Z,2.47
2022-09-12T08:37:18.661Z,3.05
2022-09-12T08:39:47.955Z,1.95
2022-09-12T08:42:24.505Z,3.85
2022-09-12T08:45:01.989Z,1.98
2022-09-12T08:47:32.716Z,1.85
2022-09-12T08:50:06.243Z,4.55
2022-09-12T08:52:38.636Z,2.35
2022-09-12T08:55:10.847Z,1.90
2022-09-12T08:57:41.480Z,2.13
2022-09-12T09:00:15.759Z,1.90
2022-09-12T09:03:04.864Z,2.75
2022-09-12T09:05:44.410Z,2.47
2022-09-12T09:08:22.763Z,2.15
2022-09-12T09:10:53.713Z,1.70
2022-09-12T09:13:52.514Z,3.17
2022-09-12T09:16:24.424Z,2.70
2022-09-12T09:18:54.750Z,5.78
2022-09-12T09:21:26.818Z,1.58
2022-09-12T09:24:00.115Z,3.38
2022-09-12T09:26:32.699Z,2.67
2022-09-12T09:29:04.707Z,3.17
2022-09-12T09:31:35.725Z,2.17
2022-09-12T09:34:08.029Z,2.63
2022-09-12T09:36:41.145Z,2.05
2022-09-12T09:39:12.077Z,5.22
2022-09-12T09:41:46.888Z,4.63
2022-09-12T09:44:17.701Z,3.83
2022-09-12T09:46:46.884Z,1.98
2022-09-12T09:49:17.804Z,1.95
2022-09-12T09:51:47.081Z,3.38
2022-09-12T09:54:20.381Z,2.55
2022-09-12T09:56:50.184Z,3.63
2022-09-12T09:59:22.195Z,2.58
2022-09-12T10:01:54.911Z,3.15
2022-09-12T10:04:25.226Z,3.50
2022-09-12T10:06:55.418Z,4.55
2022-09-12T10:09:26.019Z,4.70
2022-09-12T10:11:55.611Z,5.70
2022-09-12T10:14:45.554Z,5.10
2022-09-12T10:17:31.773Z,6.13
2022-09-12T10:22:52.734Z,4.75
2022-09-12T10:25:21.793Z,5.57
2022-09-12T10:27:56.862Z,5.60
2022-09-12T10:30:28.786Z,4.32
2022-09-12T10:33:07.547Z,3.60
2022-09-12T10:35:45.639Z,10.25
2022-09-12T10:38:19.376Z,3.08
2022-09-12T10:40:56.993Z,3.70
2022-09-12T10:43:29.430Z,4.45
2022-09-12T10:45:59.366Z,3.95
2022-09-12T10:48:33.659Z,6.57
2022-09-12T10:51:03.031Z,7.53
2022-09-12T10:53:34.949Z,7.35
2022-09-12T10:56:06.619Z,7.15
2022-09-12T10:58:40.584Z,7.45
2022-09-12T11:01:11.896Z,7.07
2022-09-12T11:03:54.894Z,5.88
2022-09-12T11:06:30.201Z,5.22
2022-09-12T11:09:06.252Z,5.53
2022-09-12T11:11:44.104Z,7.18
2022-09-12T11:14:20.605Z,10.60
2022-09-12T11:16:54.153Z,7.95
2022-09-12T11:19:39.508Z,8.95
2022-09-12T11:22:15.111Z,11.10
2022-09-12T11:24:51.366Z,14.15
2022-09-12T11:27:27.259Z,10.35
2022-09-12T11:29:59.597Z,10.35
2022-09-12T11:32:47.373Z,9.35
2022-09-12T11:35:27.511Z,13.60
2022-09-12T11:38:01.491Z,18.23
2022-09-12T11:40:33.385Z,12.68
2022-09-12T11:45:32.060Z,13.98
2022-09-12T11:48:03.942Z,11.35
2022-09-12T11:50:34.598Z,8.68
2022-09-12T11:53:12.501Z,9.00
2022-09-12T11:55:47.102Z,12.43
2022-09-12T11:58:16.644Z,11.05
2022-09-12T12:00:48.549Z,8.30
2022-09-12T12:05:54.492Z,10.82
2022-09-12T12:08:24.127Z,10.20
2022-09-12T12:10:56.023Z,10.55
2022-09-12T12:13:27.732Z,10.05
2022-09-12T12:15:58.587Z,17.58
2022-09-12T12:18:29.018Z,11.20
2022-09-12T12:21:20.010Z,11.73
2022-09-12T12:24:04.907Z,6.90
2022-09-12T12:26:56.681Z,3.75
2022-09-12T12:29:43.879Z,3.20
2022-09-12T12:32:23.461Z,2.58
2022-09-12T12:47:34.821Z,1.73
2022-09-12T12:50:06.954Z,2.78
2022-09-12T12:55:16.980Z,2.53
2022-09-12T12:57:51.023Z,3.35
2022-09-12T13:00:35.040Z,2.63
2022-09-12T13:03:12.620Z,4.57
2022-09-12T13:05:45.653Z,2.85
2022-09-12T13:08:30.462Z,3.47
2022-09-12T13:11:02.440Z,2.08
2022-09-12T13:13:34.595Z,1.10
2022-09-12T13:18:36.704Z,1.85
2022-09-12T13:21:11.039Z,1.52
2022-09-12T13:23:40.775Z,1.55
2022-09-12T13:26:14.398Z,3.25
2022-09-12T13:28:43.477Z,2.42
2022-09-12T13:31:15.419Z,2.58
2022-09-12T13:36:23.956Z,1.33
2022-09-12T13:38:59.392Z,2.05
2022-09-12T13:41:39.579Z,2.50
2022-09-12T13:44:11.162Z,2.00
2022-09-12T13:46:40.198Z,3.25
2022-09-12T13:49:23.285Z,2.58
2022-09-12T13:52:01.946Z,2.00
2022-09-12T13:54:31.635Z,1.42
2022-09-12T13:57:00.832Z,1.60
2022-09-12T13:59:29.939Z,0.88
2022-09-12T14:01:59.341Z,2.35
2022-09-12T14:04:46.630Z,4.38
2022-09-12T14:07:20.324Z,3.03
2022-09-12T14:09:55.170Z,1.40
2022-09-12T14:12:26.696Z,6.07
2022-09-12T14:14:55.902Z,2.05
2022-09-12T14:17:30.211Z,4.18
2022-09-12T14:20:02.191Z,2.67
2022-09-12T14:25:03.563Z,1.52
2022-09-12T14:27:38.110Z,4.65
2022-09-12T14:30:09.311Z,1.90
2022-09-12T14:32:38.603Z,4.13
2022-09-12T14:35:08.684Z,2.50
2022-09-12T14:37:39.369Z,1.80
2022-09-12T14:40:18.952Z,1.45
2022-09-12T14:42:49.631Z,1.65
2022-09-12T14:45:20.273Z,3.05
2022-09-12T14:47:51.293Z,1.48
2022-09-12T14:50:21.959Z,3.67
2022-09-12T14:53:06.206Z,1.38
2022-09-12T14:55:36.142Z,1.38
2022-09-12T14:58:18.362Z,1.67
2022-09-12T15:03:25.463Z,1.25
2022-09-12T15:05:55.191Z,3.08
2022-09-12T15:08:26.285Z,2.13
2022-09-12T15:10:55.687Z,2.03
2022-09-12T15:13:26.308Z,2.78
2022-09-12T15:15:56.323Z,4.55
2022-09-12T15:18:26.654Z,1.70
2022-09-12T15:20:58.166Z,3.75
2022-09-12T15:23:38.214Z,2.25
2022-09-12T15:26:08.539Z,3.67
2022-09-12T15:28:38.409Z,1.30
2022-09-12T15:31:09.414Z,2.38
2022-09-12T15:33:38.664Z,5.57
2022-09-12T15:36:13.715Z,1.58
2022-09-12T15:38:44.571Z,1.30
2022-09-12T15:41:15.694Z,1.63
2022-09-12T15:43:45.046Z,1.67
2022-09-12T15:46:14.797Z,1.88
2022-09-12T15:48:44.389Z,1.65
2022-09-12T15:51:15.641Z,3.40
2022-09-12T15:53:47.500Z,2.78
2022-09-12T15:56:17.250Z,2.85
2022-09-12T15:58:58.322Z,1.27
2022-09-12T16:01:29.474Z,3.05
2022-09-12T16:03:58.858Z,1.98
2022-09-12T16:06:33.617Z,2.47
2022-09-12T16:09:07.359Z,3.53
2022-09-12T16:11:36.432Z,2.30
2022-09-12T16:14:06.669Z,2.95
2022-09-12T16:16:36.172Z,3.60
2022-09-12T16:19:05.740Z,2.15
2022-09-12T16:21:34.787Z,3.03
2022-09-12T16:24:04.178Z,6.35
2022-09-12T16:26:34.892Z,1.83
2022-09-12T16:29:03.878Z,3.60
2022-09-12T16:31:33.326Z,2.88
2022-09-12T16:34:02.532Z,2.20
2022-09-12T16:36:31.820Z,3.42
2022-09-12T16:39:01.000Z,3.22
2022-09-12T16:41:30.641Z,3.63
2022-09-12T16:44:02.072Z,4.18
2022-09-12T16:46:31.994Z,2.97
2022-09-12T16:49:01.354Z,5.13
2022-09-12T16:51:33.028Z,2.08
2022-09-12T16:54:02.006Z,1.10
2022-09-12T16:56:32.349Z,2.70
2022-09-12T16:59:04.237Z,3.17
2022-09-12T17:01:34.841Z,1.52
2022-09-12T17:04:04.254Z,1.45
2022-09-12T17:06:34.565Z,1.45
2022-09-12T17:09:04.437Z,1.67
2022-09-12T17:11:34.532Z,2.47
2022-09-12T17:14:07.136Z,1.42
2022-09-12T17:16:39.071Z,2.30
2022-09-12T17:19:10.224Z,3.05
2022-09-12T17:21:39.324Z,2.67
2022-09-12T17:24:08.862Z,3.50
2022-09-12T17:26:38.070Z,3.10
2022-09-12T17:29:08.892Z,3.33
2022-09-12T17:31:38.870Z,4.50
2022-09-12T17:34:08.893Z,7.05
2022-09-12T17:36:39.578Z,10.32
2022-09-12T17:39:08.772Z,3.35
2022-09-12T17:41:37.921Z,4.72
2022-09-12T17:44:08.398Z,4.95
2022-09-12T17:46:38.229Z,2.20
2022-09-12T17:49:08.135Z,2.05
2022-09-12T17:51:37.438Z,2.70
2022-09-12T17:54:08.478Z,3.55
2022-09-12T17:56:38.219Z,3.88
2022-09-12T17:59:09.271Z,3.17
2022-09-12T18:01:55.933Z,2.92
2022-09-12T18:04:25.011Z,3.92
2022-09-12T18:06:54.151Z,4.40
2022-09-12T18:09:25.178Z,5.22
2022-09-12T18:11:54.808Z,5.30
2022-09-12T18:14:26.243Z,5.30
2022-09-12T18:16:57.077Z,3.35
2022-09-12T18:19:27.167Z,3.00
2022-09-12T18:21:56.163Z,1.70
2022-09-12T18:24:25.348Z,3.33
2022-09-12T18:26:56.707Z,3.15
2022-09-12T18:29:29.862Z,3.00
2022-09-12T18:31:59.899Z,7.03
2022-09-12T18:34:29.158Z,11.50
2022-09-12T18:36:59.046Z,9.27
2022-09-12T18:39:28.310Z,7.57
2022-09-12T18:41:57.838Z,7.38
2022-09-12T18:44:29.003Z,7.60
2022-09-12T18:46:58.166Z,10.73
2022-09-12T18:49:27.764Z,5.43
2022-09-12T18:51:57.063Z,3.22
2022-09-12T18:54:27.014Z,3.60
2022-09-12T18:56:56.198Z,6.07
2022-09-12T18:59:25.406Z,3.22
2022-09-12T19:01:56.057Z,3.17
2022-09-12T19:04:25.501Z,4.07
2022-09-12T19:06:54.558Z,3.78
2022-09-12T19:09:23.685Z,3.13
2022-09-12T19:11:52.781Z,2.33
2022-09-12T19:14:23.086Z,4.47
2022-09-12T19:16:52.675Z,4.72
2022-09-12T19:19:25.240Z,5.63
2022-09-12T19:21:54.755Z,8.52
2022-09-12T19:24:23.846Z,3.30
2022-09-12T19:26:52.835Z,4.40
2022-09-12T19:29:21.955Z,4.32
2022-09-12T19:31:51.225Z,2.85
2022-09-12T19:34:20.295Z,2.97
2022-09-12T19:36:50.971Z,2.83
2022-09-12T19:39:20.792Z,1.67
2022-09-12T19:41:50.064Z,3.83
2022-09-12T19:44:20.194Z,2.45
2022-09-12T19:46:49.182Z,2.00
2022-09-12T19:49:18.185Z,4.85
2022-09-12T19:51:47.745Z,3.42
2022-09-12T19:54:18.000Z,2.30
2022-09-12T19:56:47.165Z,7.20
2022-09-12T19:59:16.315Z,1.88
2022-09-12T20:01:45.311Z,4.68
2022-09-12T20:04:14.682Z,3.97
2022-09-12T20:06:43.694Z,5.78
2022-09-12T20:09:12.867Z,2.95
2022-09-12T20:11:43.557Z,4.57
2022-09-12T20:14:12.800Z,3.38
2022-09-12T20:16:41.982Z,2.55
2022-09-12T20:19:11.494Z,3.25
2022-09-12T20:21:40.876Z,5.00
2022-09-12T20:24:13.531Z,4.30
2022-09-12T20:26:43.970Z,2.80
2022-09-12T20:29:13.365Z,4.80
2022-09-12T20:31:43.675Z,6.00
2022-09-12T20:34:15.680Z,2.72
2022-09-12T20:36:45.349Z,3.53
2022-09-12T20:39:15.852Z,3.13
2022-09-12T20:41:46.677Z,6.30
2022-09-12T20:44:16.160Z,22.98
2022-09-12T20:46:45.464Z,36.40
2022-09-12T20:49:14.531Z,15.70
2022-09-12T20:51:44.276Z,10.50
2022-09-12T20:54:13.340Z,10.82
2022-09-12T20:56:42.724Z,7.10
2022-09-12T20:59:14.172Z,5.20
2022-09-12T21:01:46.027Z,6.05
2022-09-12T21:04:15.911Z,6.40
2022-09-12T21:06:45.644Z,3.78
2022-09-12T21:09:15.475Z,5.43
2022-09-12T21:11:45.008Z,5.65
2022-09-12T21:14:15.690Z,7.35
2022-09-12T21:16:44.803Z,3.92
2022-09-12T21:19:13.855Z,4.55
2022-09-12T21:21:43.072Z,3.28
2022-09-12T21:24:15.167Z,3.67
2022-09-12T21:26:44.179Z,6.60
2022-09-12T21:29:13.511Z,2.75
2022-09-12T21:31:44.361Z,4.03
2022-09-12T21:34:13.523Z,3.65
2022-09-12T21:36:43.083Z,3.97
2022-09-12T21:39:12.243Z,5.10
2022-09-12T21:41:41.986Z,5.22
2022-09-12T21:44:11.922Z,2.58
2022-09-12T21:46:41.223Z,6.72
2022-09-12T21:49:11.859Z,4.65
2022-09-12T21:51:40.952Z,3.17
2022-09-12T21:54:10.156Z,3.90
2022-09-12T21:56:39.540Z,4.85
2022-09-12T21:59:08.998Z,3.70
2022-09-12T22:01:38.137Z,2.05
2022-09-12T22:04:07.242Z,2.33
2022-09-12T22:06:37.775Z,7.13
2022-09-12T22:09:07.272Z,5.35
2022-09-12T22:11:36.303Z,4.15
2022-09-12T22:14:05.448Z,4.18
2022-09-12T22:16:34.586Z,2.35
2022-09-12T22:19:03.865Z,4.57
2022-09-12T22:21:32.987Z,2.42
2022-09-12T22:24:21.762Z,3.58
2022-09-12T22:26:51.633Z,2.92
2022-09-12T22:29:21.632Z,3.92
2022-09-12T22:31:50.670Z,4.18
2022-09-12T22:34:19.850Z,3.08
2022-09-12T22:36:49.389Z,3.90
2022-09-12T22:39:20.540Z,3.17
2022-09-12T22:41:49.990Z,2.53
2022-09-12T22:44:19.098Z,3.70
2022-09-12T22:46:48.638Z,4.38
2022-09-12T22:49:17.799Z,2.53
2022-09-12T22:51:47.869Z,2.53
2022-09-12T22:54:17.622Z,3.47
2022-09-12T22:56:48.232Z,3.95
2022-09-12T22:59:17.470Z,4.32
2022-09-12T23:01:47.091Z,5.72
2022-09-12T23:04:16.567Z,3.92
2022-09-12T23:06:45.706Z,2.80
2022-09-12T23:09:14.710Z,3.78
2022-09-12T23:11:44.216Z,5.35
2022-09-12T23:14:14.899Z,2.78
2022-09-12T23:16:44.281Z,4.40
2022-09-12T23:19:13.993Z,5.05
2022-09-12T23:21:43.422Z,3.10
2022-09-12T23:24:13.146Z,3.00
2022-09-12T23:26:44.058Z,3.78
2022-09-12T23:29:13.139Z,2.38
2022-09-12T23:31:43.981Z,3.92
2022-09-12T23:34:13.365Z,4.82
2022-09-12T23:36:42.466Z,3.40
2022-09-12T23:39:12.070Z,4.20
2022-09-12T23:41:41.569Z,4.13
2022-09-12T23:44:10.919Z,4.22
2022-09-12T23:46:40.243Z,5.78
2022-09-12T23:49:11.032Z,7.47
2022-09-12T23:51:40.362Z,3.07
2022-09-12T23:54:10.046Z,3.28
2022-09-12T23:56:38.959Z,3.70
2022-09-12T23:59:08.051Z,3.33
